sensor_id;sensor_type;location;lat;lon;timestamp;P1;durP1;ratioP1;P2;durP2;ratioP2
37527;SDS011;23372;52.050;4.810;2023-11-21T00:01:16;23.30;;;10.10;;
37527;SDS011;23372;52.050;4.810;2023-11-21T00:03:42;22.33;;;10.17;;
37527;SDS011;23372;52.050;4.810;2023-11-21T00:06:07;21.07;;;10.57;;
37527;SDS011;23372;52.050;4.810;2023-11-21T00:08:36;16.30;;;9.07;;
37527;SDS011;23372;52.050;4.810;2023-11-21T00:11:02;18.07;;;9.40;;
37527;SDS011;23372;52.050;4.810;2023-11-21T00:13:30;16.53;;;8.77;;
37527;SDS011;23372;52.050;4.810;2023-11-21T00:15:56;14.83;;;9.23;;
37527;SDS011;23372;52.050;4.810;2023-11-21T00:18:22;19.00;;;9.00;;
37527;SDS011;23372;52.050;4.810;2023-11-21T00:20:47;16.57;;;9.07;;
37527;SDS011;23372;52.050;4.810;2023-11-21T00:23:13;18.57;;;8.73;;
37527;SDS011;23372;52.050;4.810;2023-11-21T00:25:38;21.77;;;7.83;;
37527;SDS011;23372;52.050;4.810;2023-11-21T00:28:05;15.00;;;8.10;;
37527;SDS011;23372;52.050;4.810;2023-11-21T00:30:30;25.13;;;9.43;;
37527;SDS011;23372;52.050;4.810;2023-11-21T00:32:56;20.27;;;9.00;;
37527;SDS011;23372;52.050;4.810;2023-11-21T00:35:22;18.70;;;8.80;;
37527;SDS011;23372;52.050;4.810;2023-11-21T00:37:47;19.97;;;8.17;;
37527;SDS011;23372;52.050;4.810;2023-11-21T00:40:14;15.90;;;8.67;;
37527;SDS011;23372;52.050;4.810;2023-11-21T00:42:40;19.20;;;8.83;;
37527;SDS011;23372;52.050;4.810;2023-11-21T00:45:06;17.73;;;8.33;;
37527;SDS011;23372;52.050;4.810;2023-11-21T00:47:32;19.47;;;7.50;;
37527;SDS011;23372;52.050;4.810;2023-11-21T00:49:58;16.90;;;7.80;;
37527;SDS011;23372;52.050;4.810;2023-11-21T00:52:24;13.33;;;6.93;;
37527;SDS011;23372;52.050;4.810;2023-11-21T00:54:50;16.83;;;7.87;;
37527;SDS011;23372;52.050;4.810;2023-11-21T00:57:15;14.23;;;7.63;;
37527;SDS011;23372;52.050;4.810;2023-11-21T00:59:41;14.80;;;7.97;;
37527;SDS011;23372;52.050;4.810;2023-11-21T01:02:06;17.13;;;7.67;;
37527;SDS011;23372;52.050;4.810;2023-11-21T01:04:35;13.43;;;7.57;;
37527;SDS011;23372;52.050;4.810;2023-11-21T01:07:00;17.27;;;8.60;;
37527;SDS011;23372;52.050;4.810;2023-11-21T01:09:26;18.13;;;8.80;;
37527;SDS011;23372;52.050;4.810;2023-11-21T01:11:53;15.90;;;8.53;;
37527;SDS011;23372;52.050;4.810;2023-11-21T01:14:18;16.73;;;9.00;;
37527;SDS011;23372;52.050;4.810;2023-11-21T01:16:44;13.77;;;8.77;;
37527;SDS011;23372;52.050;4.810;2023-11-21T01:19:10;13.73;;;8.33;;
37527;SDS011;23372;52.050;4.810;2023-11-21T01:21:35;17.57;;;8.33;;
37527;SDS011;23372;52.050;4.810;2023-11-21T01:24:01;17.63;;;8.63;;
37527;SDS011;23372;52.050;4.810;2023-11-21T01:26:27;15.37;;;9.33;;
37527;SDS011;23372;52.050;4.810;2023-11-21T01:28:53;19.23;;;9.20;;
37527;SDS011;23372;52.050;4.810;2023-11-21T01:31:19;20.50;;;8.93;;
37527;SDS011;23372;52.050;4.810;2023-11-21T01:33:45;17.63;;;8.43;;
37527;SDS011;23372;52.050;4.810;2023-11-21T01:36:11;18.57;;;8.77;;
37527;SDS011;23372;52.050;4.810;2023-11-21T01:38:36;18.20;;;9.07;;
37527;SDS011;23372;52.050;4.810;2023-11-21T01:41:02;18.90;;;9.20;;
37527;SDS011;23372;52.050;4.810;2023-11-21T01:43:28;19.93;;;9.27;;
37527;SDS011;23372;52.050;4.810;2023-11-21T01:45:57;27.10;;;10.10;;
37527;SDS011;23372;52.050;4.810;2023-11-21T01:48:25;16.87;;;9.00;;
37527;SDS011;23372;52.050;4.810;2023-11-21T01:50:52;25.97;;;9.00;;
37527;SDS011;23372;52.050;4.810;2023-11-21T01:53:18;21.87;;;9.47;;
37527;SDS011;23372;52.050;4.810;2023-11-21T01:55:44;23.77;;;9.70;;
37527;SDS011;23372;52.050;4.810;2023-11-21T01:58:11;23.00;;;9.50;;
37527;SDS011;23372;52.050;4.810;2023-11-21T02:00:37;25.53;;;10.70;;
37527;SDS011;23372;52.050;4.810;2023-11-21T02:03:03;22.77;;;10.23;;
37527;SDS011;23372;52.050;4.810;2023-11-21T02:05:29;21.13;;;10.67;;
37527;SDS011;23372;52.050;4.810;2023-11-21T02:07:54;18.00;;;9.40;;
37527;SDS011;23372;52.050;4.810;2023-11-21T02:10:21;15.97;;;9.23;;
37527;SDS011;23372;52.050;4.810;2023-11-21T02:12:50;20.60;;;9.50;;
37527;SDS011;23372;52.050;4.810;2023-11-21T02:15:16;21.63;;;10.27;;
37527;SDS011;23372;52.050;4.810;2023-11-21T02:17:45;18.67;;;9.03;;
37527;SDS011;23372;52.050;4.810;2023-11-21T02:20:23;20.23;;;9.03;;
37527;SDS011;23372;52.050;4.810;2023-11-21T02:25:23;22.90;;;9.40;;
37527;SDS011;23372;52.050;4.810;2023-11-21T02:27:49;21.90;;;10.40;;
37527;SDS011;23372;52.050;4.810;2023-11-21T02:30:15;23.17;;;8.87;;
37527;SDS011;23372;52.050;4.810;2023-11-21T02:32:41;24.63;;;9.43;;
37527;SDS011;23372;52.050;4.810;2023-11-21T02:35:07;21.67;;;10.70;;
37527;SDS011;23372;52.050;4.810;2023-11-21T02:37:34;20.60;;;9.93;;
37527;SDS011;23372;52.050;4.810;2023-11-21T02:40:00;21.60;;;9.70;;
37527;SDS011;23372;52.050;4.810;2023-11-21T02:42:29;26.37;;;9.80;;
37527;SDS011;23372;52.050;4.810;2023-11-21T02:44:54;23.53;;;9.83;;
37527;SDS011;23372;52.050;4.810;2023-11-21T02:47:22;23.83;;;9.70;;
37527;SDS011;23372;52.050;4.810;2023-11-21T02:49:48;22.23;;;8.90;;
37527;SDS011;23372;52.050;4.810;2023-11-21T02:52:13;20.67;;;10.00;;
37527;SDS011;23372;52.050;4.810;2023-11-21T02:54:39;19.60;;;9.67;;
37527;SDS011;23372;52.050;4.810;2023-11-21T02:57:05;23.93;;;8.53;;
37527;SDS011;23372;52.050;4.810;2023-11-21T02:59:30;20.60;;;9.37;;
37527;SDS011;23372;52.050;4.810;2023-11-21T03:01:56;21.37;;;9.80;;
37527;SDS011;23372;52.050;4.810;2023-11-21T03:04:22;26.80;;;9.87;;
37527;SDS011;23372;52.050;4.810;2023-11-21T03:06:47;28.37;;;10.40;;
37527;SDS011;23372;52.050;4.810;2023-11-21T03:09:13;24.93;;;10.57;;
37527;SDS011;23372;52.050;4.810;2023-11-21T03:11:38;24.10;;;9.93;;
37527;SDS011;23372;52.050;4.810;2023-11-21T03:14:04;23.67;;;9.53;;
37527;SDS011;23372;52.050;4.810;2023-11-21T03:16:30;23.00;;;9.87;;
37527;SDS011;23372;52.050;4.810;2023-11-21T03:18:57;18.60;;;8.87;;
37527;SDS011;23372;52.050;4.810;2023-11-21T03:21:23;21.80;;;9.47;;
37527;SDS011;23372;52.050;4.810;2023-11-21T03:23:49;23.03;;;9.37;;
37527;SDS011;23372;52.050;4.810;2023-11-21T03:26:15;27.77;;;10.13;;
37527;SDS011;23372;52.050;4.810;2023-11-21T03:28:41;22.23;;;9.47;;
37527;SDS011;23372;52.050;4.810;2023-11-21T03:31:07;24.30;;;9.33;;
37527;SDS011;23372;52.050;4.810;2023-11-21T03:33:33;21.27;;;9.70;;
37527;SDS011;23372;52.050;4.810;2023-11-21T03:36:00;29.43;;;9.03;;
37527;SDS011;23372;52.050;4.810;2023-11-21T03:38:25;22.77;;;9.03;;
37527;SDS011;23372;52.050;4.810;2023-11-21T03:40:51;26.57;;;9.63;;
37527;SDS011;23372;52.050;4.810;2023-11-21T03:43:17;17.20;;;8.67;;
37527;SDS011;23372;52.050;4.810;2023-11-21T03:45:42;21.80;;;9.57;;
37527;SDS011;23372;52.050;4.810;2023-11-21T03:48:08;21.97;;;9.00;;
37527;SDS011;23372;52.050;4.810;2023-11-21T03:50:34;22.03;;;9.23;;
37527;SDS011;23372;52.050;4.810;2023-11-21T03:53:01;22.63;;;9.17;;
37527;SDS011;23372;52.050;4.810;2023-11-21T03:55:26;21.27;;;9.10;;
37527;SDS011;23372;52.050;4.810;2023-11-21T03:57:52;23.20;;;7.93;;
37527;SDS011;23372;52.050;4.810;2023-11-21T04:00:17;18.00;;;8.33;;
37527;SDS011;23372;52.050;4.810;2023-11-21T04:02:45;25.77;;;11.43;;
37527;SDS011;23372;52.050;4.810;2023-11-21T04:05:10;22.13;;;9.80;;
37527;SDS011;23372;52.050;4.810;2023-11-21T04:07:37;22.70;;;8.87;;
37527;SDS011;23372;52.050;4.810;2023-11-21T04:10:03;22.70;;;8.93;;
37527;SDS011;23372;52.050;4.810;2023-11-21T04:12:32;20.83;;;8.50;;
37527;SDS011;23372;52.050;4.810;2023-11-21T04:14:57;22.23;;;8.40;;
37527;SDS011;23372;52.050;4.810;2023-11-21T04:17:23;20.80;;;8.90;;
37527;SDS011;23372;52.050;4.810;2023-11-21T04:19:49;17.60;;;8.77;;
37527;SDS011;23372;52.050;4.810;2023-11-21T04:22:14;26.43;;;10.43;;
37527;SDS011;23372;52.050;4.810;2023-11-21T04:24:40;20.63;;;8.47;;
37527;SDS011;23372;52.050;4.810;2023-11-21T04:27:05;20.43;;;8.40;;
37527;SDS011;23372;52.050;4.810;2023-11-21T04:29:31;25.27;;;9.33;;
37527;SDS011;23372;52.050;4.810;2023-11-21T04:31:56;29.60;;;10.07;;
37527;SDS011;23372;52.050;4.810;2023-11-21T04:34:22;18.23;;;8.90;;
37527;SDS011;23372;52.050;4.810;2023-11-21T04:36:48;22.63;;;8.80;;
37527;SDS011;23372;52.050;4.810;2023-11-21T04:39:14;20.60;;;9.13;;
37527;SDS011;23372;52.050;4.810;2023-11-21T04:41:40;18.53;;;8.60;;
37527;SDS011;23372;52.050;4.810;2023-11-21T04:44:05;20.73;;;8.43;;
37527;SDS011;23372;52.050;4.810;2023-11-21T04:46:31;20.53;;;8.37;;
37527;SDS011;23372;52.050;4.810;2023-11-21T04:48:57;26.00;;;8.23;;
37527;SDS011;23372;52.050;4.810;2023-11-21T04:51:23;25.97;;;9.63;;
37527;SDS011;23372;52.050;4.810;2023-11-21T04:53:48;21.73;;;8.47;;
37527;SDS011;23372;52.050;4.810;2023-11-21T04:56:14;18.30;;;9.43;;
37527;SDS011;23372;52.050;4.810;2023-11-21T04:58:41;22.30;;;8.60;;
37527;SDS011;23372;52.050;4.810;2023-11-21T05:01:07;18.30;;;7.73;;
37527;SDS011;23372;52.050;4.810;2023-11-21T05:03:32;19.63;;;7.90;;
37527;SDS011;23372;52.050;4.810;2023-11-21T05:05:59;18.93;;;8.43;;
37527;SDS011;23372;52.050;4.810;2023-11-21T05:08:25;15.47;;;6.93;;
37527;SDS011;23372;52.050;4.810;2023-11-21T05:10:51;19.00;;;7.50;;
37527;SDS011;23372;52.050;4.810;2023-11-21T05:13:17;14.57;;;7.07;;
37527;SDS011;23372;52.050;4.810;2023-11-21T05:15:43;14.97;;;7.30;;
37527;SDS011;23372;52.050;4.810;2023-11-21T05:18:09;13.10;;;8.03;;
37527;SDS011;23372;52.050;4.810;2023-11-21T05:20:35;18.53;;;7.70;;
37527;SDS011;23372;52.050;4.810;2023-11-21T05:23:02;16.50;;;6.70;;
37527;SDS011;23372;52.050;4.810;2023-11-21T05:25:27;13.87;;;7.27;;
37527;SDS011;23372;52.050;4.810;2023-11-21T05:27:53;16.17;;;7.77;;
37527;SDS011;23372;52.050;4.810;2023-11-21T05:30:19;19.50;;;7.80;;
37527;SDS011;23372;52.050;4.810;2023-11-21T05:32:46;14.70;;;7.20;;
37527;SDS011;23372;52.050;4.810;2023-11-21T05:35:11;16.97;;;7.50;;
37527;SDS011;23372;52.050;4.810;2023-11-21T05:37:40;17.63;;;7.20;;
37527;SDS011;23372;52.050;4.810;2023-11-21T05:40:07;18.40;;;6.83;;
37527;SDS011;23372;52.050;4.810;2023-11-21T05:42:33;15.80;;;6.30;;
37527;SDS011;23372;52.050;4.810;2023-11-21T05:44:59;18.07;;;6.73;;
37527;SDS011;23372;52.050;4.810;2023-11-21T05:47:35;20.27;;;7.37;;
37527;SDS011;23372;52.050;4.810;2023-11-21T05:50:05;17.13;;;7.40;;
37527;SDS011;23372;52.050;4.810;2023-11-21T05:52:35;15.93;;;8.50;;
37527;SDS011;23372;52.050;4.810;2023-11-21T05:55:02;17.07;;;7.87;;
37527;SDS011;23372;52.050;4.810;2023-11-21T05:57:27;21.90;;;8.17;;
37527;SDS011;23372;52.050;4.810;2023-11-21T05:59:53;20.37;;;8.00;;
37527;SDS011;23372;52.050;4.810;2023-11-21T06:02:18;19.03;;;8.83;;
37527;SDS011;23372;52.050;4.810;2023-11-21T06:04:44;19.13;;;7.90;;
37527;SDS011;23372;52.050;4.810;2023-11-21T06:07:09;14.70;;;7.47;;
37527;SDS011;23372;52.050;4.810;2023-11-21T06:09:35;16.03;;;7.57;;
37527;SDS011;23372;52.050;4.810;2023-11-21T06:12:02;14.73;;;6.73;;
37527;SDS011;23372;52.050;4.810;2023-11-21T06:14:29;15.33;;;7.30;;
37527;SDS011;23372;52.050;4.810;2023-11-21T06:16:54;14.87;;;7.33;;
37527;SDS011;23372;52.050;4.810;2023-11-21T06:19:21;16.27;;;7.80;;
37527;SDS011;23372;52.050;4.810;2023-11-21T06:21:47;15.80;;;8.33;;
37527;SDS011;23372;52.050;4.810;2023-11-21T06:24:12;15.17;;;7.43;;
37527;SDS011;23372;52.050;4.810;2023-11-21T06:26:40;15.60;;;7.47;;
37527;SDS011;23372;52.050;4.810;2023-11-21T06:29:06;14.97;;;7.40;;
37527;SDS011;23372;52.050;4.810;2023-11-21T06:31:32;15.10;;;7.30;;
37527;SDS011;23372;52.050;4.810;2023-11-21T06:33:57;13.27;;;6.70;;
37527;SDS011;23372;52.050;4.810;2023-11-21T06:36:24;14.67;;;6.43;;
37527;SDS011;23372;52.050;4.810;2023-11-21T06:38:51;17.10;;;7.07;;
37527;SDS011;23372;52.050;4.810;2023-11-21T06:41:17;15.07;;;6.33;;
37527;SDS011;23372;52.050;4.810;2023-11-21T06:43:42;11.80;;;5.60;;
37527;SDS011;23372;52.050;4.810;2023-11-21T06:46:12;13.57;;;6.60;;
37527;SDS011;23372;52.050;4.810;2023-11-21T06:48:39;9.20;;;5.67;;
37527;SDS011;23372;52.050;4.810;2023-11-21T06:51:08;14.77;;;5.23;;
37527;SDS011;23372;52.050;4.810;2023-11-21T06:53:34;13.10;;;5.60;;
37527;SDS011;23372;52.050;4.810;2023-11-21T06:56:01;13.20;;;5.70;;
37527;SDS011;23372;52.050;4.810;2023-11-21T06:58:27;10.43;;;4.87;;
37527;SDS011;23372;52.050;4.810;2023-11-21T07:00:53;12.83;;;5.40;;
37527;SDS011;23372;52.050;4.810;2023-11-21T07:03:18;12.23;;;5.90;;
37527;SDS011;23372;52.050;4.810;2023-11-21T07:05:44;14.57;;;6.30;;
37527;SDS011;23372;52.050;4.810;2023-11-21T07:08:10;11.13;;;5.70;;
37527;SDS011;23372;52.050;4.810;2023-11-21T07:10:37;14.37;;;5.63;;
37527;SDS011;23372;52.050;4.810;2023-11-21T07:13:03;12.33;;;5.70;;
37527;SDS011;23372;52.050;4.810;2023-11-21T07:15:28;19.67;;;6.43;;
37527;SDS011;23372;52.050;4.810;2023-11-21T07:17:54;13.63;;;5.63;;
37527;SDS011;23372;52.050;4.810;2023-11-21T07:20:19;14.80;;;6.77;;
37527;SDS011;23372;52.050;4.810;2023-11-21T07:22:46;20.37;;;6.20;;
37527;SDS011;23372;52.050;4.810;2023-11-21T07:25:12;10.73;;;5.40;;
37527;SDS011;23372;52.050;4.810;2023-11-21T07:27:37;16.23;;;5.80;;
37527;SDS011;23372;52.050;4.810;2023-11-21T07:30:03;12.03;;;5.27;;
37527;SDS011;23372;52.050;4.810;2023-11-21T07:32:33;14.03;;;5.33;;
37527;SDS011;23372;52.050;4.810;2023-11-21T07:34:59;14.27;;;5.97;;
37527;SDS011;23372;52.050;4.810;2023-11-21T07:37:26;15.83;;;6.00;;
37527;SDS011;23372;52.050;4.810;2023-11-21T07:39:53;18.47;;;6.77;;
37527;SDS011;23372;52.050;4.810;2023-11-21T07:42:21;17.20;;;6.33;;
37527;SDS011;23372;52.050;4.810;2023-11-21T07:44:49;16.47;;;6.57;;
37527;SDS011;23372;52.050;4.810;2023-11-21T07:47:15;15.17;;;6.83;;
37527;SDS011;23372;52.050;4.810;2023-11-21T07:49:40;12.57;;;6.60;;
37527;SDS011;23372;52.050;4.810;2023-11-21T07:52:08;19.43;;;7.77;;
37527;SDS011;23372;52.050;4.810;2023-11-21T07:54:34;19.60;;;7.13;;
37527;SDS011;23372;52.050;4.810;2023-11-21T07:57:01;18.50;;;7.97;;
37527;SDS011;23372;52.050;4.810;2023-11-21T07:59:27;18.80;;;8.47;;
37527;SDS011;23372;52.050;4.810;2023-11-21T08:01:53;16.70;;;7.30;;
37527;SDS011;23372;52.050;4.810;2023-11-21T08:04:19;13.80;;;7.43;;
37527;SDS011;23372;52.050;4.810;2023-11-21T08:06:44;17.63;;;6.90;;
37527;SDS011;23372;52.050;4.810;2023-11-21T08:09:10;13.03;;;6.90;;
37527;SDS011;23372;52.050;4.810;2023-11-21T08:11:37;15.13;;;7.63;;
37527;SDS011;23372;52.050;4.810;2023-11-21T08:14:03;15.80;;;7.00;;
37527;SDS011;23372;52.050;4.810;2023-11-21T08:16:29;23.50;;;8.07;;
37527;SDS011;23372;52.050;4.810;2023-11-21T08:18:55;22.43;;;8.17;;
37527;SDS011;23372;52.050;4.810;2023-11-21T08:21:21;21.43;;;8.27;;
37527;SDS011;23372;52.050;4.810;2023-11-21T08:23:49;20.17;;;9.47;;
37527;SDS011;23372;52.050;4.810;2023-11-21T08:26:18;22.90;;;9.57;;
37527;SDS011;23372;52.050;4.810;2023-11-21T08:28:45;15.80;;;8.73;;
37527;SDS011;23372;52.050;4.810;2023-11-21T08:31:10;23.60;;;9.93;;
37527;SDS011;23372;52.050;4.810;2023-11-21T08:33:36;18.67;;;9.23;;
37527;SDS011;23372;52.050;4.810;2023-11-21T08:36:06;18.87;;;10.23;;
37527;SDS011;23372;52.050;4.810;2023-11-21T08:38:32;24.53;;;10.60;;
37527;SDS011;23372;52.050;4.810;2023-11-21T08:40:58;29.17;;;11.60;;
37527;SDS011;23372;52.050;4.810;2023-11-21T08:43:25;33.57;;;11.77;;
37527;SDS011;23372;52.050;4.810;2023-11-21T08:45:52;23.13;;;10.97;;
37527;SDS011;23372;52.050;4.810;2023-11-21T08:48:18;23.17;;;10.87;;
37527;SDS011;23372;52.050;4.810;2023-11-21T08:50:43;23.17;;;11.20;;
37527;SDS011;23372;52.050;4.810;2023-11-21T08:53:09;28.83;;;11.37;;
37527;SDS011;23372;52.050;4.810;2023-11-21T08:55:36;25.03;;;10.50;;
37527;SDS011;23372;52.050;4.810;2023-11-21T08:58:02;22.77;;;10.53;;
37527;SDS011;23372;52.050;4.810;2023-11-21T09:00:30;22.27;;;10.00;;
37527;SDS011;23372;52.050;4.810;2023-11-21T09:02:56;26.70;;;10.77;;
37527;SDS011;23372;52.050;4.810;2023-11-21T09:05:22;20.37;;;8.53;;
37527;SDS011;23372;52.050;4.810;2023-11-21T09:07:48;25.13;;;8.17;;
37527;SDS011;23372;52.050;4.810;2023-11-21T09:10:14;16.93;;;8.00;;
37527;SDS011;23372;52.050;4.810;2023-11-21T09:12:39;17.73;;;8.17;;
37527;SDS011;23372;52.050;4.810;2023-11-21T09:15:05;16.27;;;6.97;;
37527;SDS011;23372;52.050;4.810;2023-11-21T09:17:32;16.60;;;6.67;;
37527;SDS011;23372;52.050;4.810;2023-11-21T09:20:02;12.20;;;5.90;;
37527;SDS011;23372;52.050;4.810;2023-11-21T09:22:30;15.40;;;6.23;;
37527;SDS011;23372;52.050;4.810;2023-11-21T09:24:56;15.00;;;5.53;;
37527;SDS011;23372;52.050;4.810;2023-11-21T09:27:22;14.13;;;6.00;;
37527;SDS011;23372;52.050;4.810;2023-11-21T09:29:48;15.00;;;5.70;;
37527;SDS011;23372;52.050;4.810;2023-11-21T09:32:14;17.47;;;5.87;;
37527;SDS011;23372;52.050;4.810;2023-11-21T09:34:43;12.33;;;4.83;;
37527;SDS011;23372;52.050;4.810;2023-11-21T09:37:09;10.07;;;4.20;;
37527;SDS011;23372;52.050;4.810;2023-11-21T09:39:35;10.43;;;4.53;;
37527;SDS011;23372;52.050;4.810;2023-11-21T09:42:13;9.47;;;4.63;;
37527;SDS011;23372;52.050;4.810;2023-11-21T09:44:55;13.90;;;5.83;;
37527;SDS011;23372;52.050;4.810;2023-11-21T09:47:29;11.50;;;5.17;;
37527;SDS011;23372;52.050;4.810;2023-11-21T09:49:55;11.67;;;5.60;;
37527;SDS011;23372;52.050;4.810;2023-11-21T09:52:26;13.77;;;4.90;;
37527;SDS011;23372;52.050;4.810;2023-11-21T09:54:52;12.27;;;6.00;;
37527;SDS011;23372;52.050;4.810;2023-11-21T09:57:23;10.07;;;5.90;;
37527;SDS011;23372;52.050;4.810;2023-11-21T09:59:53;13.43;;;5.10;;
37527;SDS011;23372;52.050;4.810;2023-11-21T10:02:30;12.23;;;5.60;;
37527;SDS011;23372;52.050;4.810;2023-11-21T10:05:01;12.40;;;4.93;;
37527;SDS011;23372;52.050;4.810;2023-11-21T10:07:28;6.80;;;4.00;;
37527;SDS011;23372;52.050;4.810;2023-11-21T10:09:59;9.27;;;4.00;;
37527;SDS011;23372;52.050;4.810;2023-11-21T10:12:26;7.67;;;3.73;;
37527;SDS011;23372;52.050;4.810;2023-11-21T10:14:53;9.93;;;5.20;;
37527;SDS011;23372;52.050;4.810;2023-11-21T10:17:22;9.37;;;4.70;;
37527;SDS011;23372;52.050;4.810;2023-11-21T10:19:52;8.93;;;4.50;;
37527;SDS011;23372;52.050;4.810;2023-11-21T10:22:19;10.37;;;5.43;;
37527;SDS011;23372;52.050;4.810;2023-11-21T10:24:45;11.90;;;5.90;;
37527;SDS011;23372;52.050;4.810;2023-11-21T10:27:11;12.67;;;5.83;;
37527;SDS011;23372;52.050;4.810;2023-11-21T10:29:38;12.27;;;6.40;;
37527;SDS011;23372;52.050;4.810;2023-11-21T10:32:04;14.23;;;6.03;;
37527;SDS011;23372;52.050;4.810;2023-11-21T10:34:30;16.77;;;7.07;;
37527;SDS011;23372;52.050;4.810;2023-11-21T10:36:56;13.07;;;5.77;;
37527;SDS011;23372;52.050;4.810;2023-11-21T10:39:23;14.20;;;6.27;;
37527;SDS011;23372;52.050;4.810;2023-11-21T10:41:53;16.00;;;6.97;;
37527;SDS011;23372;52.050;4.810;2023-11-21T10:44:20;12.97;;;6.13;;
37527;SDS011;23372;52.050;4.810;2023-11-21T10:47:04;12.33;;;5.67;;
37527;SDS011;23372;52.050;4.810;2023-11-21T10:49:30;11.73;;;5.73;;
37527;SDS011;23372;52.050;4.810;2023-11-21T10:51:55;14.77;;;7.33;;
37527;SDS011;23372;52.050;4.810;2023-11-21T10:54:22;16.03;;;7.13;;
37527;SDS011;23372;52.050;4.810;2023-11-21T10:56:50;16.30;;;7.50;;
37527;SDS011;23372;52.050;4.810;2023-11-21T10:59:25;20.93;;;8.17;;
37527;SDS011;23372;52.050;4.810;2023-11-21T11:01:57;17.13;;;6.97;;
37527;SDS011;23372;52.050;4.810;2023-11-21T11:04:25;18.93;;;9.20;;
37527;SDS011;23372;52.050;4.810;2023-11-21T11:06:56;20.90;;;8.47;;
37527;SDS011;23372;52.050;4.810;2023-11-21T11:09:24;19.43;;;8.47;;
37527;SDS011;23372;52.050;4.810;2023-11-21T11:11:51;17.77;;;8.50;;
37527;SDS011;23372;52.050;4.810;2023-11-21T11:14:17;21.03;;;8.03;;
37527;SDS011;23372;52.050;4.810;2023-11-21T11:16:44;16.70;;;8.03;;
37527;SDS011;23372;52.050;4.810;2023-11-21T11:19:10;19.03;;;8.50;;
37527;SDS011;23372;52.050;4.810;2023-11-21T11:21:42;18.40;;;8.30;;
37527;SDS011;23372;52.050;4.810;2023-11-21T11:24:39;22.07;;;8.97;;
37527;SDS011;23372;52.050;4.810;2023-11-21T11:27:40;19.07;;;8.80;;
37527;SDS011;23372;52.050;4.810;2023-11-21T11:32:55;22.67;;;10.13;;
37527;SDS011;23372;52.050;4.810;2023-11-21T11:35:46;19.03;;;9.53;;
37527;SDS011;23372;52.050;4.810;2023-11-21T11:38:33;21.80;;;9.27;;
37527;SDS011;23372;52.050;4.810;2023-11-21T11:41:04;19.37;;;9.33;;
37527;SDS011;23372;52.050;4.810;2023-11-21T11:43:30;21.67;;;9.33;;
37527;SDS011;23372;52.050;4.810;2023-11-21T11:46:09;20.67;;;8.60;;
37527;SDS011;23372;52.050;4.810;2023-11-21T11:48:39;16.27;;;8.17;;
37527;SDS011;23372;52.050;4.810;2023-11-21T11:51:14;16.97;;;7.03;;
37527;SDS011;23372;52.050;4.810;2023-11-21T11:53:43;22.07;;;9.07;;
37527;SDS011;23372;52.050;4.810;2023-11-21T11:58:56;22.27;;;9.40;;
37527;SDS011;23372;52.050;4.810;2023-11-21T12:01:27;26.00;;;10.67;;
37527;SDS011;23372;52.050;4.810;2023-11-21T12:06:45;22.77;;;8.60;;
37527;SDS011;23372;52.050;4.810;2023-11-21T12:09:21;20.53;;;8.73;;
37527;SDS011;23372;52.050;4.810;2023-11-21T12:11:50;18.33;;;8.43;;
37527;SDS011;23372;52.050;4.810;2023-11-21T12:14:16;18.67;;;8.73;;
37527;SDS011;23372;52.050;4.810;2023-11-21T12:16:43;17.67;;;7.93;;
37527;SDS011;23372;52.050;4.810;2023-11-21T12:19:12;23.50;;;8.03;;
37527;SDS011;23372;52.050;4.810;2023-11-21T12:21:38;23.60;;;8.70;;
37527;SDS011;23372;52.050;4.810;2023-11-21T12:24:06;21.67;;;9.17;;
37527;SDS011;23372;52.050;4.810;2023-11-21T12:26:34;19.37;;;8.10;;
37527;SDS011;23372;52.050;4.810;2023-11-21T12:29:01;20.97;;;9.77;;
37527;SDS011;23372;52.050;4.810;2023-11-21T12:31:29;24.93;;;9.03;;
37527;SDS011;23372;52.050;4.810;2023-11-21T12:33:55;21.30;;;9.13;;
37527;SDS011;23372;52.050;4.810;2023-11-21T12:36:21;21.07;;;9.13;;
37527;SDS011;23372;52.050;4.810;2023-11-21T12:38:47;22.80;;;9.50;;
37527;SDS011;23372;52.050;4.810;2023-11-21T12:41:12;28.17;;;11.40;;
37527;SDS011;23372;52.050;4.810;2023-11-21T12:43:40;24.43;;;10.07;;
37527;SDS011;23372;52.050;4.810;2023-11-21T12:46:10;21.50;;;8.23;;
37527;SDS011;23372;52.050;4.810;2023-11-21T12:48:39;19.20;;;9.20;;
37527;SDS011;23372;52.050;4.810;2023-11-21T12:51:09;20.70;;;9.77;;
37527;SDS011;23372;52.050;4.810;2023-11-21T12:53:43;22.17;;;9.13;;
37527;SDS011;23372;52.050;4.810;2023-11-21T12:56:13;21.60;;;10.30;;
37527;SDS011;23372;52.050;4.810;2023-11-21T12:58:43;25.30;;;10.13;;
37527;SDS011;23372;52.050;4.810;2023-11-21T13:01:12;22.33;;;9.60;;
37527;SDS011;23372;52.050;4.810;2023-11-21T13:03:42;20.30;;;9.87;;
37527;SDS011;23372;52.050;4.810;2023-11-21T13:06:10;20.57;;;10.50;;
37527;SDS011;23372;52.050;4.810;2023-11-21T13:08:37;19.10;;;10.03;;
37527;SDS011;23372;52.050;4.810;2023-11-21T13:11:04;22.17;;;10.17;;
37527;SDS011;23372;52.050;4.810;2023-11-21T13:13:31;26.87;;;11.53;;
37527;SDS011;23372;52.050;4.810;2023-11-21T13:15:59;24.50;;;11.90;;
37527;SDS011;23372;52.050;4.810;2023-11-21T13:18:26;24.53;;;11.03;;
37527;SDS011;23372;52.050;4.810;2023-11-21T13:20:56;22.47;;;10.83;;
37527;SDS011;23372;52.050;4.810;2023-11-21T13:23:24;24.80;;;11.23;;
37527;SDS011;23372;52.050;4.810;2023-11-21T13:25:50;25.23;;;11.20;;
37527;SDS011;23372;52.050;4.810;2023-11-21T13:28:16;26.80;;;11.83;;
37527;SDS011;23372;52.050;4.810;2023-11-21T13:30:48;26.53;;;12.40;;
37527;SDS011;23372;52.050;4.810;2023-11-21T13:33:17;28.23;;;12.67;;
37527;SDS011;23372;52.050;4.810;2023-11-21T13:35:46;27.03;;;13.20;;
37527;SDS011;23372;52.050;4.810;2023-11-21T13:38:14;30.27;;;12.73;;
37527;SDS011;23372;52.050;4.810;2023-11-21T13:41:01;30.10;;;13.83;;
37527;SDS011;23372;52.050;4.810;2023-11-21T13:43:27;28.83;;;13.77;;
37527;SDS011;23372;52.050;4.810;2023-11-21T13:45:54;30.87;;;14.53;;
37527;SDS011;23372;52.050;4.810;2023-11-21T13:48:38;26.37;;;12.63;;
37527;SDS011;23372;52.050;4.810;2023-11-21T13:51:08;30.50;;;13.10;;
37527;SDS011;23372;52.050;4.810;2023-11-21T13:53:46;29.37;;;13.90;;
37527;SDS011;23372;52.050;4.810;2023-11-21T13:56:14;28.30;;;13.37;;
37527;SDS011;23372;52.050;4.810;2023-11-21T13:58:50;30.60;;;14.17;;
37527;SDS011;23372;52.050;4.810;2023-11-21T14:01:17;28.10;;;13.40;;
37527;SDS011;23372;52.050;4.810;2023-11-21T14:04:04;27.40;;;14.50;;
37527;SDS011;23372;52.050;4.810;2023-11-21T14:06:48;28.10;;;13.97;;
37527;SDS011;23372;52.050;4.810;2023-11-21T14:09:15;24.63;;;12.97;;
37527;SDS011;23372;52.050;4.810;2023-11-21T14:11:53;30.70;;;14.90;;
37527;SDS011;23372;52.050;4.810;2023-11-21T14:14:22;28.93;;;13.70;;
37527;SDS011;23372;52.050;4.810;2023-11-21T14:16:50;23.73;;;12.87;;
37527;SDS011;23372;52.050;4.810;2023-11-21T14:19:16;27.17;;;13.30;;
37527;SDS011;23372;52.050;4.810;2023-11-21T14:21:45;27.33;;;13.30;;
37527;SDS011;23372;52.050;4.810;2023-11-21T14:24:13;31.90;;;13.20;;
37527;SDS011;23372;52.050;4.810;2023-11-21T14:26:40;27.50;;;13.17;;
37527;SDS011;23372;52.050;4.810;2023-11-21T14:29:07;26.77;;;12.50;;
37527;SDS011;23372;52.050;4.810;2023-11-21T14:31:34;30.90;;;13.23;;
37527;SDS011;23372;52.050;4.810;2023-11-21T14:34:00;28.97;;;14.57;;
37527;SDS011;23372;52.050;4.810;2023-11-21T14:36:31;29.50;;;14.67;;
37527;SDS011;23372;52.050;4.810;2023-11-21T14:38:56;31.10;;;14.13;;
37527;SDS011;23372;52.050;4.810;2023-11-21T14:41:22;28.83;;;12.40;;
37527;SDS011;23372;52.050;4.810;2023-11-21T14:43:50;26.43;;;13.30;;